createdAt,value
2023-04-22T00:01:19.542Z,80.38
2023-04-22T00:04:22.713Z,80.40
2023-04-22T00:07:26.001Z,80.02
2023-04-22T00:10:29.124Z,79.46
2023-04-22T00:13:31.883Z,79.75
2023-04-22T00:16:35.139Z,79.91
2023-04-22T00:19:38.252Z,79.93
2023-04-22T00:22:41.594Z,79.58
2023-04-22T00:25:44.251Z,79.82
2023-04-22T00:28:47.220Z,79.40
2023-04-22T00:31:50.259Z,79.96
2023-04-22T00:34:53.392Z,80.11
2023-04-22T00:37:57.349Z,80.22
2023-04-22T00:41:00.644Z,79.96
2023-04-22T00:44:04.529Z,80.15
2023-04-22T00:47:08.801Z,79.89
2023-04-22T00:50:15.912Z,80.56
2023-04-22T00:53:18.751Z,80.43
2023-04-22T00:56:22.220Z,81.13
2023-04-22T00:59:25.768Z,81.10
2023-04-22T01:02:29.776Z,81.36
2023-04-22T01:05:37.212Z,80.38
2023-04-22T01:08:40.938Z,81.18
2023-04-22T01:11:44.850Z,81.71
2023-04-22T01:14:47.721Z,81.98
2023-04-22T01:17:53.760Z,82.02
2023-04-22T01:20:57.658Z,83.05
2023-04-22T01:24:03.911Z,83.02
2023-04-22T01:27:07.387Z,82.82
2023-04-22T01:30:11.489Z,82.79
2023-04-22T01:33:16.061Z,82.10
2023-04-22T01:36:18.962Z,81.55
2023-04-22T01:39:23.877Z,82.14
2023-04-22T01:42:26.840Z,81.53
2023-04-22T01:45:31.398Z,82.16
2023-04-22T01:48:35.636Z,83.12
2023-04-22T01:51:38.508Z,82.86
2023-04-22T01:54:41.750Z,83.41
2023-04-22T01:57:47.068Z,82.98
2023-04-22T02:00:51.159Z,84.91
2023-04-22T02:03:53.982Z,84.14
2023-04-22T02:06:57.269Z,84.08
2023-04-22T02:10:01.761Z,83.56
2023-04-22T02:13:04.309Z,83.68
2023-04-22T02:16:08.262Z,84.03
2023-04-22T02:19:12.043Z,85.12
2023-04-22T02:22:14.573Z,84.40
2023-04-22T02:25:18.894Z,84.43
2023-04-22T02:28:21.740Z,83.97
2023-04-22T02:31:24.616Z,84.48
2023-04-22T02:34:27.589Z,84.36
2023-04-22T02:37:30.955Z,85.04
2023-04-22T02:40:33.736Z,84.21
2023-04-22T02:43:37.760Z,84.36
2023-04-22T02:46:40.541Z,84.39
2023-04-22T02:49:44.231Z,84.29
2023-04-22T02:52:46.911Z,84.46
2023-04-22T02:55:52.376Z,84.19
2023-04-22T02:58:54.838Z,84.51
2023-04-22T03:01:58.009Z,85.13
2023-04-22T03:05:02.703Z,84.89
2023-04-22T03:08:06.891Z,84.31
2023-04-22T03:11:09.648Z,84.16
2023-04-22T03:14:13.685Z,84.66
2023-04-22T03:17:17.243Z,86.14
2023-04-22T03:20:20.870Z,85.69
2023-04-22T03:23:23.494Z,85.38
2023-04-22T03:26:26.678Z,85.11
2023-04-22T03:29:30.104Z,84.89
2023-04-22T03:32:33.941Z,85.17
2023-04-22T03:35:38.176Z,86.42
2023-04-22T03:38:41.835Z,85.50
2023-04-22T03:41:44.987Z,85.36
2023-04-22T03:44:48.732Z,85.33
2023-04-22T03:47:52.796Z,85.95
2023-04-22T03:50:56.325Z,87.09
2023-04-22T03:54:01.178Z,86.73
2023-04-22T03:57:06.160Z,86.19
2023-04-22T04:00:10.625Z,85.14
2023-04-22T04:03:17.190Z,84.83
2023-04-22T04:06:22.341Z,85.26
2023-04-22T04:09:26.533Z,84.81
2023-04-22T04:12:30.800Z,86.12
2023-04-22T04:15:35.737Z,85.66
2023-04-22T04:18:41.735Z,86.20
2023-04-22T04:21:51.986Z,85.91
2023-04-22T04:24:57.397Z,84.80
2023-04-22T04:28:09.549Z,86.09
2023-04-22T04:31:14.545Z,85.53
2023-04-22T04:34:17.722Z,84.47
2023-04-22T04:37:22.996Z,84.00
2023-04-22T04:40:32.923Z,83.22
2023-04-22T04:43:37.828Z,82.44
2023-04-22T04:46:43.040Z,82.08
2023-04-22T04:49:47.232Z,81.53
2023-04-22T04:52:52.659Z,80.86
2023-04-22T04:55:57.874Z,80.20
2023-04-22T04:59:01.710Z,79.99
2023-04-22T05:02:05.575Z,79.11
2023-04-22T05:05:09.231Z,77.99
2023-04-22T05:08:17.763Z,77.18
2023-04-22T05:11:22.638Z,75.84
2023-04-22T05:14:26.356Z,73.93
2023-04-22T05:17:30.830Z,73.73
2023-04-22T05:20:42.717Z,72.35
2023-04-22T05:23:45.770Z,71.41
2023-04-22T05:26:51.566Z,71.20
2023-04-22T05:29:54.439Z,70.75
2023-04-22T05:32:59.757Z,70.37
2023-04-22T05:36:06.688Z,70.09
2023-04-22T05:39:11.135Z,69.63
2023-04-22T05:42:16.234Z,69.61
2023-04-22T05:45:20.033Z,68.89
2023-04-22T05:48:25.406Z,67.98
2023-04-22T05:51:31.435Z,63.87
2023-04-22T05:54:35.995Z,63.33
2023-04-22T05:57:40.808Z,60.04
2023-04-22T06:00:47.172Z,56.38
2023-04-22T06:03:51.913Z,56.24
2023-04-22T06:06:56.938Z,55.50
2023-04-22T06:10:08.858Z,54.45
2023-04-22T06:13:13.140Z,51.14
2023-04-22T06:16:25.672Z,52.49
2023-04-22T06:19:32.758Z,48.51
2023-04-22T06:22:35.798Z,45.70
2023-04-22T06:25:39.463Z,47.41
2023-04-22T06:28:43.524Z,48.09
2023-04-22T06:31:48.178Z,45.14
2023-04-22T06:35:06.781Z,43.93
2023-04-22T06:38:11.744Z,43.76
2023-04-22T06:41:19.706Z,44.44
2023-04-22T06:44:24.984Z,46.02
2023-04-22T06:47:30.849Z,47.16
2023-04-22T06:50:37.239Z,46.86
2023-04-22T06:53:47.463Z,46.52
2023-04-22T06:56:52.857Z,48.80
2023-04-22T07:00:10.984Z,47.35
2023-04-22T07:03:14.228Z,48.15
2023-04-22T07:06:28.254Z,48.84
2023-04-22T07:09:38.864Z,48.98
2023-04-22T07:12:42.353Z,49.13
2023-04-22T07:15:47.437Z,47.71
2023-04-22T07:18:51.102Z,48.70
2023-04-22T07:21:54.234Z,45.49
2023-04-22T07:25:00.784Z,41.01
2023-04-22T07:28:04.724Z,39.21
2023-04-22T07:31:11.906Z,41.36
2023-04-22T07:34:17.469Z,42.86
2023-04-22T07:37:22.546Z,41.61
2023-04-22T07:40:32.027Z,38.42
2023-04-22T07:43:37.042Z,38.14
2023-04-22T07:46:41.212Z,36.42
2023-04-22T07:49:46.924Z,35.84
2023-04-22T07:52:50.748Z,35.64
2023-04-22T07:55:54.010Z,34.95
2023-04-22T07:58:57.388Z,33.34
2023-04-22T08:02:10.920Z,32.68
2023-04-22T08:05:14.990Z,33.70
2023-04-22T08:08:19.044Z,33.40
2023-04-22T08:11:22.936Z,33.00
2023-04-22T08:14:27.604Z,32.45
2023-04-22T08:17:31.643Z,32.15
2023-04-22T08:20:35.059Z,33.32
2023-04-22T08:23:43.822Z,33.74
2023-04-22T08:26:46.892Z,32.33
2023-04-22T08:29:50.944Z,32.30
2023-04-22T08:33:06.995Z,31.27
2023-04-22T08:36:11.567Z,29.97
2023-04-22T08:39:16.024Z,27.55
2023-04-22T08:42:23.902Z,29.52
2023-04-22T08:45:33.865Z,30.04
2023-04-22T08:48:38.475Z,28.33
2023-04-22T08:51:47.710Z,29.86
2023-04-22T08:54:55.864Z,29.74
2023-04-22T08:58:03.887Z,29.07
2023-04-22T09:01:10.114Z,28.85
2023-04-22T09:04:20.789Z,30.75
2023-04-22T09:07:29.011Z,30.39
2023-04-22T09:10:33.987Z,26.36
2023-04-22T09:13:38.750Z,29.79
2023-04-22T09:16:48.602Z,29.25
2023-04-22T09:20:01.806Z,27.70
2023-04-22T09:23:06.851Z,29.52
2023-04-22T09:26:15.277Z,29.60
2023-04-22T09:29:22.065Z,29.31
2023-04-22T09:32:26.403Z,29.98
2023-04-22T09:35:32.758Z,30.02
2023-04-22T09:38:38.936Z,30.13
2023-04-22T09:41:53.834Z,29.50
2023-04-22T09:45:12.648Z,29.54
2023-04-22T09:48:20.186Z,30.56
2023-04-22T09:51:38.970Z,29.64
2023-04-22T09:54:52.067Z,28.99
2023-04-22T09:57:58.163Z,29.95
2023-04-22T10:01:03.798Z,31.10
2023-04-22T10:04:11.831Z,29.24
2023-04-22T10:07:15.304Z,29.03
2023-04-22T10:10:18.214Z,28.29
2023-04-22T10:13:23.862Z,28.67
2023-04-22T10:16:40.783Z,28.30
2023-04-22T10:19:48.015Z,28.10
2023-04-22T10:22:54.765Z,28.57
2023-04-22T10:25:59.955Z,28.22
2023-04-22T10:29:09.582Z,27.96
2023-04-22T10:32:36.943Z,26.52
2023-04-22T10:36:08.527Z,25.53
2023-04-22T10:39:17.407Z,27.55
2023-04-22T10:42:24.165Z,28.30
2023-04-22T10:45:36.777Z,28.08
2023-04-22T10:48:52.659Z,27.15
2023-04-22T10:51:59.974Z,30.18
2023-04-22T10:55:11.020Z,31.51
2023-04-22T10:58:22.041Z,29.57
2023-04-22T11:01:29.573Z,31.19
2023-04-22T11:04:33.116Z,31.23
2023-04-22T11:07:39.828Z,31.39
2023-04-22T11:10:50.252Z,31.24
2023-04-22T11:13:56.769Z,29.92
2023-04-22T11:17:09.802Z,30.10
2023-04-22T11:20:18.888Z,30.11
2023-04-22T11:23:27.979Z,29.88
2023-04-22T11:26:35.568Z,30.36
2023-04-22T11:29:40.303Z,30.95
2023-04-22T11:32:46.758Z,30.89
2023-04-22T11:35:51.811Z,31.80
2023-04-22T11:38:59.800Z,31.48
2023-04-22T11:42:10.738Z,30.93
2023-04-22T11:45:17.904Z,30.42
2023-04-22T11:48:22.570Z,30.63
2023-04-22T11:51:33.892Z,29.02
2023-04-22T11:54:38.709Z,29.11
2023-04-22T11:57:46.096Z,29.00
2023-04-22T12:00:51.120Z,30.61
2023-04-22T12:04:05.179Z,26.57
2023-04-22T12:07:08.793Z,27.80
2023-04-22T12:10:17.295Z,27.55
2023-04-22T12:13:30.482Z,25.65
2023-04-22T12:16:41.921Z,24.73
2023-04-22T12:19:52.929Z,25.48
2023-04-22T12:22:58.244Z,26.08
2023-04-22T12:26:08.350Z,26.01
2023-04-22T12:29:12.841Z,24.90
2023-04-22T12:32:25.157Z,25.54
2023-04-22T12:35:29.003Z,27.47
2023-04-22T12:38:34.744Z,26.94
2023-04-22T12:41:47.359Z,29.18
2023-04-22T12:44:50.890Z,27.11
2023-04-22T12:47:54.075Z,29.19
2023-04-22T12:50:58.159Z,28.30
2023-04-22T12:54:02.026Z,28.67
2023-04-22T12:57:09.990Z,27.75
2023-04-22T13:00:17.428Z,28.11
2023-04-22T13:03:23.727Z,28.25
2023-04-22T13:06:34.764Z,28.83
2023-04-22T13:09:41.235Z,29.14
2023-04-22T13:12:44.939Z,28.68
2023-04-22T13:15:54.748Z,28.89
2023-04-22T13:19:01.805Z,28.67
2023-04-22T13:22:05.091Z,29.20
2023-04-22T13:25:11.803Z,29.30
2023-04-22T13:28:20.614Z,29.74
2023-04-22T13:31:26.189Z,29.50
2023-04-22T13:34:31.053Z,29.03
2023-04-22T13:37:41.474Z,28.72
2023-04-22T13:40:45.229Z,29.07
2023-04-22T13:43:56.579Z,29.66
2023-04-22T13:47:02.551Z,30.46
2023-04-22T13:50:09.283Z,30.76
2023-04-22T13:53:15.577Z,29.87
2023-04-22T13:56:18.670Z,29.76
2023-04-22T13:59:21.081Z,29.11
2023-04-22T14:02:28.431Z,28.87
2023-04-22T14:05:33.984Z,29.16
2023-04-22T14:08:39.397Z,28.09
2023-04-22T14:11:50.096Z,28.78
2023-04-22T14:14:53.799Z,27.99
2023-04-22T14:18:01.094Z,28.04
2023-04-22T14:21:06.865Z,28.79
2023-04-22T14:24:10.876Z,29.03
2023-04-22T14:27:13.904Z,28.05
2023-04-22T14:30:21.852Z,28.54
2023-04-22T14:33:28.794Z,27.43
2023-04-22T14:36:32.753Z,28.62
2023-04-22T14:39:39.089Z,28.61
2023-04-22T14:42:43.412Z,29.05
2023-04-22T14:45:50.308Z,28.86
2023-04-22T14:48:54.899Z,28.68
2023-04-22T14:52:06.901Z,29.19
2023-04-22T14:55:19.897Z,28.80
2023-04-22T14:58:31.610Z,29.76
2023-04-22T15:01:36.083Z,30.50
2023-04-22T15:04:39.411Z,31.02
2023-04-22T15:07:58.691Z,32.22
2023-04-22T15:11:07.927Z,31.66
2023-04-22T15:14:18.848Z,31.63
2023-04-22T15:17:25.612Z,31.62
2023-04-22T15:20:29.385Z,31.89
2023-04-22T15:23:32.556Z,32.52
2023-04-22T15:26:45.081Z,32.39
2023-04-22T15:29:49.498Z,32.49
2023-04-22T15:32:56.295Z,31.49
2023-04-22T15:36:00.861Z,29.40
2023-04-22T15:39:05.871Z,29.45
2023-04-22T15:42:14.813Z,30.13
2023-04-22T15:45:25.782Z,30.27
2023-04-22T15:48:33.760Z,30.35
2023-04-22T15:51:42.153Z,28.65
2023-04-22T15:54:48.790Z,30.05
2023-04-22T15:57:51.927Z,30.43
2023-04-22T16:01:15.350Z,30.47
2023-04-22T16:04:25.070Z,30.46
2023-04-22T16:07:31.067Z,29.34
2023-04-22T16:10:40.994Z,29.36
2023-04-22T16:13:44.501Z,30.48
2023-04-22T16:16:58.054Z,30.43
2023-04-22T16:20:13.282Z,30.95
2023-04-22T16:23:27.075Z,30.69
2023-04-22T16:26:36.856Z,31.88
2023-04-22T16:29:43.234Z,32.17
2023-04-22T16:32:53.577Z,33.10
2023-04-22T16:35:57.825Z,32.74
2023-04-22T16:39:03.855Z,33.28
2023-04-22T16:42:14.809Z,33.79
2023-04-22T16:45:19.998Z,34.63
2023-04-22T16:48:23.215Z,34.24
2023-04-22T16:51:35.060Z,33.65
2023-04-22T16:54:38.054Z,34.31
2023-04-22T16:57:50.685Z,34.31
2023-04-22T17:01:05.100Z,35.53
2023-04-22T17:04:16.492Z,36.48
2023-04-22T17:07:32.019Z,37.01
2023-04-22T17:10:45.911Z,37.23
2023-04-22T17:13:49.923Z,37.58
2023-04-22T17:16:54.046Z,37.33
2023-04-22T17:20:05.736Z,37.95
2023-04-22T17:23:21.816Z,38.46
2023-04-22T17:26:31.458Z,39.30
2023-04-22T17:29:41.950Z,40.90
2023-04-22T17:32:52.621Z,39.81
2023-04-22T17:35:58.123Z,40.72
2023-04-22T17:39:01.594Z,41.42
2023-04-22T17:42:04.652Z,42.01
2023-04-22T17:45:11.082Z,42.22
2023-04-22T17:48:17.128Z,43.24
2023-04-22T17:51:31.755Z,43.37
2023-04-22T17:54:41.689Z,44.43
2023-04-22T17:57:45.506Z,45.09
2023-04-22T18:00:54.007Z,45.26
2023-04-22T18:04:05.115Z,46.06
2023-04-22T18:07:16.810Z,46.59
2023-04-22T18:10:23.781Z,46.00
2023-04-22T18:13:40.776Z,46.22
2023-04-22T18:16:54.764Z,46.85
2023-04-22T18:20:17.520Z,49.53
2023-04-22T18:23:31.087Z,48.77
2023-04-22T18:26:47.117Z,48.40
2023-04-22T18:29:51.826Z,52.38
2023-04-22T18:32:55.878Z,49.64
2023-04-22T18:36:02.800Z,50.57
2023-04-22T18:39:10.922Z,53.27
2023-04-22T18:42:19.202Z,51.46
2023-04-22T18:45:26.804Z,52.16
2023-04-22T18:48:32.890Z,52.13
2023-04-22T18:51:39.794Z,52.55
2023-04-22T18:54:54.767Z,53.96
2023-04-22T18:57:58.258Z,52.86
2023-04-22T19:01:04.341Z,54.31
2023-04-22T19:04:21.268Z,53.87
2023-04-22T19:07:26.607Z,54.61
2023-04-22T19:10:36.747Z,54.43
2023-04-22T19:13:42.856Z,54.57
2023-04-22T19:17:05.993Z,55.18
2023-04-22T19:20:12.907Z,55.85
2023-04-22T19:23:33.742Z,55.83
2023-04-22T19:26:45.541Z,56.15
2023-04-22T19:29:56.819Z,56.44
2023-04-22T19:33:04.886Z,57.95
2023-04-22T19:36:09.598Z,57.15
2023-04-22T19:39:13.532Z,57.33
2023-04-22T19:42:18.153Z,57.64
2023-04-22T19:45:23.133Z,57.03
2023-04-22T19:48:29.676Z,57.20
2023-04-22T19:51:35.792Z,57.69
2023-04-22T19:54:45.910Z,59.66
2023-04-22T19:57:53.791Z,60.23
2023-04-22T20:00:58.541Z,60.49
2023-04-22T20:04:10.171Z,61.03
2023-04-22T20:07:17.826Z,60.32
2023-04-22T20:10:22.931Z,60.43
2023-04-22T20:13:34.856Z,60.96
2023-04-22T20:16:48.704Z,60.60
2023-04-22T20:19:54.912Z,60.71
2023-04-22T20:23:10.851Z,60.76
2023-04-22T20:26:26.803Z,61.44
2023-04-22T20:29:30.885Z,61.71
2023-04-22T20:32:37.883Z,62.21
2023-04-22T20:35:49.861Z,63.06
2023-04-22T20:38:55.370Z,63.49
2023-04-22T20:42:03.014Z,63.55
2023-04-22T20:45:20.489Z,63.86
2023-04-22T20:48:27.796Z,64.58
2023-04-22T20:51:31.871Z,64.20
2023-04-22T20:54:35.902Z,65.01
2023-04-22T20:57:39.350Z,65.07
2023-04-22T21:00:49.360Z,65.04
2023-04-22T21:04:00.997Z,65.57
2023-04-22T21:07:15.845Z,66.42
2023-04-22T21:10:22.746Z,66.02
2023-04-22T21:13:29.786Z,66.54
2023-04-22T21:17:05.779Z,67.18
2023-04-22T21:20:12.069Z,68.00
2023-04-22T21:23:19.864Z,66.82
2023-04-22T21:26:24.071Z,66.22
2023-04-22T21:29:27.728Z,65.35
2023-04-22T21:32:40.883Z,64.81
2023-04-22T21:35:44.795Z,64.92
2023-04-22T21:38:50.846Z,64.60
2023-04-22T21:41:53.948Z,64.52
2023-04-22T21:45:04.659Z,64.66
2023-04-22T21:48:08.088Z,65.00
2023-04-22T21:51:11.446Z,64.35
2023-04-22T21:54:18.227Z,65.74
2023-04-22T21:57:22.499Z,65.54
2023-04-22T22:00:25.833Z,65.69
2023-04-22T22:03:29.140Z,65.83
2023-04-22T22:06:33.222Z,65.49
2023-04-22T22:09:36.746Z,65.23
2023-04-22T22:12:40.130Z,65.79
2023-04-22T22:15:44.396Z,65.36
2023-04-22T22:18:48.855Z,67.02
2023-04-22T22:22:03.777Z,66.79
2023-04-22T22:25:08.987Z,66.90
2023-04-22T22:28:13.407Z,67.01
2023-04-22T22:31:16.174Z,67.22
2023-04-22T22:34:18.980Z,67.30
2023-04-22T22:37:21.910Z,68.74
2023-04-22T22:40:26.952Z,68.78
2023-04-22T22:43:29.439Z,70.60
2023-04-22T22:46:32.776Z,70.00
2023-04-22T22:49:35.567Z,69.28
2023-04-22T22:52:39.249Z,69.33
2023-04-22T22:55:42.186Z,69.67
2023-04-22T22:58:46.416Z,70.48
2023-04-22T23:01:50.589Z,70.56
2023-04-22T23:04:53.959Z,70.39
2023-04-22T23:07:56.680Z,70.51
2023-04-22T23:10:59.658Z,70.21
2023-04-22T23:14:03.310Z,70.71
2023-04-22T23:17:06.450Z,71.10
2023-04-22T23:20:11.160Z,70.80
2023-04-22T23:23:16.683Z,70.89
2023-04-22T23:26:19.852Z,71.70
2023-04-22T23:29:23.362Z,71.66
2023-04-22T23:32:27.073Z,71.38
2023-04-22T23:35:30.886Z,71.66
2023-04-22T23:38:35.088Z,71.34
2023-04-22T23:41:38.387Z,71.37
2023-04-22T23:44:41.532Z,71.97
2023-04-22T23:47:51.099Z,72.26
2023-04-22T23:51:00.065Z,71.62
2023-04-22T23:54:03.950Z,72.16
2023-04-22T23:57:07.910Z,72.43
